Airfield :
LOGIN :

Register | Disclaimer

   EN    FR    IT 

 










Legend :    VFR   Marginal VFR   IFR   Intensive IFR   Very Intensive IFR
Visi :
Ceiling :
>= 8 km
>= 3000ft
5 to 8 km
1000 to 3000 ft
1500m to 5 km
500 to 1000 ft
800 to 1500m
200 to 500 ft
< 800m
< 200 ft
Symbols :   Thunderstorms  Fog  Heavy snow  Heavy precipitations  Wind > 20 kt
SIGMETs :     Misc.  Thunderstorms  Icing  Turbulence  Mountain Waves  Volcanic Ashes







- Airport Elevation : 390 ft
- IATA code : NQY
- Download approach charts


EGHQ - Newquay

CURRENT METAR :
  • 171650Z 24016KT 9999 SCT013 17/14 Q1012

EXPIRED METARs :
  • 171620Z 24020KT 9999 SCT014 18/14 Q1013
  • 171550Z 24018KT 9999 FEW014 18/14 Q1013
  • 171520Z 24019KT 9999 FEW016 18/14 Q1013
  • 171450Z 25018KT 9999 FEW015 18/15 Q1013
  • 171420Z 24019KT 9999 FEW014 18/15 Q1013

TAF TAF EGHQ
Valid from the 17 at 15:00 until the 17 at 21:00 UTC


171401Z 1715/1721 24018KT 9999 SCT015
BECMG 1718/1721 22008KT
No reported NOTAMs for that airfield.



MET'MAP, your aeronautical weather chart ! - Copyright ORBIFLY December 2007 - Disclaimer

ORBIFLY MET'MAP TEAM :

Programming & Development : Alexandra Zaïnal
Concept & Development : Baudouin d'Aumeries
Co-Development & Prog : Marc-Olivier Méhu
Technical & hardware support : Manuel Goepfert

Contact : metmap@orbifly.com




SOURCES & CREDITS :

   NOAA